createdAt,value
2023-03-04T00:02:33.491Z,13.20
2023-03-04T00:05:36.029Z,13.10
2023-03-04T00:08:38.014Z,13.10
2023-03-04T00:11:40.228Z,14.70
2023-03-04T00:14:41.169Z,13.80
2023-03-04T00:17:41.015Z,13.90
2023-03-04T00:20:42.051Z,14.60
2023-03-04T00:23:43.051Z,13.10
2023-03-04T00:26:44.214Z,14.20
2023-03-04T00:29:44.149Z,15.60
2023-03-04T00:32:46.103Z,14.50
2023-03-04T00:35:49.236Z,14.10
2023-03-04T00:38:49.086Z,14.80
2023-03-04T00:41:49.063Z,12.70
2023-03-04T00:44:50.092Z,13.70
2023-03-04T00:47:50.082Z,13.50
2023-03-04T00:50:50.112Z,13.20
2023-03-04T00:53:50.107Z,12.90
2023-03-04T00:56:51.090Z,13.80
2023-03-04T00:59:52.396Z,12.30
2023-03-04T01:03:01.104Z,13.50
2023-03-04T01:09:02.121Z,11.60
2023-03-04T01:12:04.103Z,12.10
2023-03-04T01:15:04.112Z,13.40
2023-03-04T01:18:13.184Z,13.10
2023-03-04T01:21:13.249Z,13.50
2023-03-04T01:27:16.202Z,12.10
2023-03-04T01:33:20.282Z,12.00
2023-03-04T01:36:26.336Z,11.60
2023-03-04T01:39:27.179Z,12.90
2023-03-04T01:42:34.156Z,11.00
2023-03-04T01:45:34.197Z,11.30
2023-03-04T01:48:43.173Z,12.20
2023-03-04T01:51:47.313Z,13.20
2023-03-04T01:54:47.405Z,13.70
2023-03-04T01:57:48.273Z,13.10
2023-03-04T02:00:50.326Z,13.70
2023-03-04T02:03:51.219Z,13.50
2023-03-04T02:06:52.269Z,14.10
2023-03-04T02:09:53.208Z,15.90
2023-03-04T02:12:54.255Z,17.10
2023-03-04T02:15:55.276Z,15.80
2023-03-04T02:19:15.256Z,16.10
2023-03-04T02:22:15.232Z,18.50
2023-03-04T02:25:19.380Z,18.10
2023-03-04T02:28:20.308Z,18.70
2023-03-04T02:31:46.243Z,15.40
2023-03-04T02:34:48.253Z,20.90
2023-03-04T02:37:49.315Z,21.70
2023-03-04T02:40:52.283Z,20.70
2023-03-04T02:43:58.915Z,22.20
2023-03-04T02:47:01.285Z,21.30
2023-03-04T02:50:01.286Z,22.40
2023-03-04T02:53:01.312Z,21.30
2023-03-04T02:56:03.798Z,22.40
2023-03-04T02:59:04.394Z,20.10
2023-03-04T03:02:06.366Z,22.80
2023-03-04T03:05:07.303Z,23.50
2023-03-04T03:08:08.338Z,21.10
2023-03-04T03:11:10.352Z,21.30
2023-03-04T03:14:13.364Z,23.20
2023-03-04T03:17:15.675Z,22.50
2023-03-04T03:20:16.540Z,22.50
2023-03-04T03:23:18.329Z,19.50
2023-03-04T03:26:18.331Z,22.60
2023-03-04T03:29:19.350Z,21.70
2023-03-04T03:32:19.384Z,21.40
2023-03-04T03:35:19.441Z,21.60
2023-03-04T03:38:19.374Z,23.30
2023-03-04T03:41:20.376Z,21.90
2023-03-04T03:44:20.372Z,26.80
2023-03-04T03:47:21.422Z,22.40
2023-03-04T03:50:21.406Z,22.00
2023-03-04T03:53:22.385Z,23.30
2023-03-04T03:56:22.429Z,22.40
2023-03-04T03:59:22.456Z,24.30
2023-03-04T04:02:25.211Z,25.70
2023-03-04T04:05:25.529Z,21.00
2023-03-04T04:08:29.652Z,22.80
2023-03-04T04:11:30.485Z,22.80
2023-03-04T04:14:31.536Z,23.20
2023-03-04T04:17:32.503Z,22.50
2023-03-04T04:20:35.465Z,23.30
2023-03-04T04:23:39.430Z,24.50
2023-03-04T04:26:39.711Z,22.30
2023-03-04T04:29:41.645Z,23.30
2023-03-04T04:32:42.477Z,22.10
2023-03-04T04:35:42.514Z,22.50
2023-03-04T04:38:42.478Z,22.00
2023-03-04T04:41:49.286Z,23.00
2023-03-04T04:44:50.531Z,23.20
2023-03-04T04:47:51.474Z,23.70
2023-03-04T04:50:51.465Z,22.50
2023-03-04T04:53:52.480Z,22.60
2023-03-04T04:59:56.547Z,22.50
2023-03-04T05:02:57.502Z,23.30
2023-03-04T05:09:01.502Z,21.40
2023-03-04T05:12:01.538Z,22.50
2023-03-04T05:15:01.509Z,21.90
2023-03-04T05:18:01.608Z,20.80
2023-03-04T05:21:08.602Z,21.20
2023-03-04T05:24:10.581Z,20.60
2023-03-04T05:27:10.549Z,21.30
2023-03-04T05:30:11.561Z,18.90
2023-03-04T05:33:11.567Z,18.90
2023-03-04T05:36:13.918Z,20.20
2023-03-04T05:39:14.554Z,20.20
2023-03-04T05:42:14.623Z,19.40
2023-03-04T05:45:14.575Z,21.10
2023-03-04T05:48:14.603Z,19.90
2023-03-04T05:51:15.587Z,19.10
2023-03-04T05:54:15.588Z,20.20
2023-03-04T05:57:15.683Z,18.20
2023-03-04T06:00:16.629Z,19.30
2023-03-04T06:03:19.661Z,17.50
2023-03-04T06:06:21.612Z,18.00
2023-03-04T06:09:23.601Z,18.10
2023-03-04T06:12:24.786Z,18.40
2023-03-04T06:15:26.769Z,17.80
2023-03-04T06:18:26.677Z,17.10
2023-03-04T06:21:27.975Z,15.90
2023-03-04T06:24:28.704Z,18.00
2023-03-04T06:27:32.680Z,17.30
2023-03-04T06:30:33.744Z,18.20
2023-03-04T06:33:34.666Z,17.90
2023-03-04T06:36:35.680Z,17.50
2023-03-04T06:39:39.691Z,17.40
2023-03-04T06:42:39.727Z,19.30
2023-03-04T06:45:42.716Z,19.00
2023-03-04T06:48:44.071Z,18.80
2023-03-04T06:51:44.952Z,16.00
2023-03-04T06:54:45.699Z,19.20
2023-03-04T06:57:48.605Z,18.90
2023-03-04T07:00:51.712Z,18.20
2023-03-04T07:03:52.908Z,18.60
2023-03-04T07:06:53.815Z,19.90
2023-03-04T07:09:55.747Z,18.70
2023-03-04T07:12:56.736Z,18.50
2023-03-04T07:16:03.745Z,20.90
2023-03-04T07:19:03.712Z,17.40
2023-03-04T07:22:09.769Z,20.10
2023-03-04T07:25:10.769Z,19.30
2023-03-04T07:28:04.881Z,20.90
2023-03-04T07:31:04.799Z,20.00
2023-03-04T07:34:05.843Z,19.10
2023-03-04T07:37:13.994Z,18.90
2023-03-04T07:40:14.754Z,18.80
2023-03-04T07:43:14.788Z,21.80
2023-03-04T07:46:16.870Z,20.50
2023-03-04T07:49:16.789Z,23.60
2023-03-04T07:52:20.833Z,21.50
2023-03-04T07:55:22.866Z,20.10
2023-03-04T07:58:25.993Z,20.70
2023-03-04T08:01:30.817Z,22.50
2023-03-04T08:04:30.866Z,23.30
2023-03-04T08:07:30.869Z,23.10
2023-03-04T08:10:34.848Z,24.10
2023-03-04T08:13:37.866Z,24.40
2023-03-04T08:16:38.851Z,22.80
2023-03-04T08:19:39.809Z,25.60
2023-03-04T08:22:41.950Z,25.20
2023-03-04T08:25:45.026Z,26.00
2023-03-04T08:28:48.128Z,23.80
2023-03-04T08:31:49.327Z,22.70
2023-03-04T08:34:49.961Z,22.80
2023-03-04T08:37:51.909Z,24.50
2023-03-04T08:40:58.009Z,21.80
2023-03-04T08:43:57.906Z,22.80
2023-03-04T08:46:58.884Z,23.70
2023-03-04T08:50:05.893Z,21.10
2023-03-04T08:53:06.894Z,22.00
2023-03-04T08:56:06.930Z,21.60
2023-03-04T08:59:08.895Z,22.40
2023-03-04T09:02:08.917Z,20.20
2023-03-04T09:05:08.933Z,23.00
2023-03-04T09:08:11.830Z,22.00
2023-03-04T09:11:11.930Z,22.60
2023-03-04T09:14:13.927Z,22.40
2023-03-04T09:17:18.212Z,22.90
2023-03-04T09:20:20.930Z,21.30
2023-03-04T09:23:21.156Z,20.70
2023-03-04T09:26:36.033Z,22.80
2023-03-04T09:29:36.997Z,20.30
2023-03-04T09:32:37.147Z,22.10
2023-03-04T09:35:39.543Z,20.40
2023-03-04T09:38:39.988Z,20.80
2023-03-04T09:41:57.237Z,19.90
2023-03-04T09:44:58.035Z,21.00
2023-03-04T09:47:58.028Z,19.60
2023-03-04T09:51:15.988Z,19.80
2023-03-04T09:54:23.012Z,17.60
2023-03-04T09:57:37.982Z,18.20
2023-03-04T10:00:46.078Z,20.60
2023-03-04T10:03:54.730Z,18.30
2023-03-04T10:07:00.268Z,19.70
2023-03-04T10:10:05.334Z,20.20
2023-03-04T10:13:13.197Z,18.40
2023-03-04T10:16:13.048Z,20.30
2023-03-04T10:19:32.065Z,19.40
2023-03-04T10:22:35.091Z,19.60
2023-03-04T10:25:38.304Z,15.20
2023-03-04T10:28:45.027Z,16.00
2023-03-04T10:31:48.120Z,15.00
2023-03-04T10:34:54.092Z,18.20
2023-03-04T10:38:02.066Z,16.30
2023-03-04T10:41:05.366Z,13.40
2023-03-04T10:44:15.078Z,19.00
2023-03-04T10:47:15.053Z,16.10
2023-03-04T10:50:18.049Z,17.10
2023-03-04T10:53:19.104Z,14.00
2023-03-04T10:56:46.129Z,15.60
2023-03-04T11:00:00.129Z,15.20
2023-03-04T11:03:04.697Z,14.40
2023-03-04T11:06:22.270Z,16.40
2023-03-04T11:09:46.208Z,15.40
2023-03-04T11:12:56.185Z,15.50
2023-03-04T11:16:06.119Z,15.90
2023-03-04T11:22:51.164Z,16.00
2023-03-04T11:25:57.144Z,15.90
2023-03-04T11:29:08.561Z,17.30
2023-03-04T11:32:46.423Z,13.40
2023-03-04T11:36:06.241Z,14.30
2023-03-04T11:39:06.160Z,15.20
2023-03-04T11:42:36.754Z,13.90
2023-03-04T11:46:06.196Z,15.60
2023-03-04T11:49:32.210Z,13.20
2023-03-04T11:52:58.211Z,14.00
2023-03-04T11:56:11.202Z,17.30
2023-03-04T11:59:14.270Z,13.50
2023-03-04T12:02:26.223Z,16.20
2023-03-04T12:05:40.397Z,13.30
2023-03-04T12:08:46.224Z,13.90
2023-03-04T12:11:52.241Z,15.40
2023-03-04T12:15:14.253Z,15.80
2023-03-04T12:18:27.271Z,15.90
2023-03-04T12:22:08.859Z,16.20
2023-03-04T12:25:28.414Z,14.60
2023-03-04T12:28:35.266Z,16.70
2023-03-04T12:31:43.279Z,15.90
2023-03-04T12:35:06.258Z,16.50
2023-03-04T12:38:23.265Z,16.60
2023-03-04T12:42:01.324Z,16.50
2023-03-04T12:45:49.501Z,13.50
2023-03-04T12:48:50.283Z,12.10
2023-03-04T12:51:44.296Z,14.40
2023-03-04T12:55:04.323Z,14.10
2023-03-04T12:58:04.315Z,15.40
2023-03-04T13:01:07.328Z,13.20
2023-03-04T13:04:18.312Z,13.40
2023-03-04T13:07:48.313Z,12.40
2023-03-04T13:10:48.323Z,14.00
2023-03-04T13:13:52.566Z,14.90
2023-03-04T13:16:59.461Z,15.40
2023-03-04T13:20:11.374Z,15.30
2023-03-04T13:23:15.383Z,14.00
2023-03-04T13:26:09.026Z,14.50
2023-03-04T13:29:44.427Z,12.50
2023-03-04T13:32:49.398Z,13.80
2023-03-04T13:36:12.330Z,14.10
2023-03-04T13:39:15.368Z,13.20
2023-03-04T13:42:15.367Z,14.30
2023-03-04T13:45:15.522Z,11.10
2023-03-04T13:48:16.483Z,15.80
2023-03-04T13:51:28.685Z,15.40
2023-03-04T13:54:33.381Z,15.90
2023-03-04T13:57:33.371Z,14.90
2023-03-04T14:00:33.440Z,14.60
2023-03-04T14:03:38.540Z,12.80
2023-03-04T14:06:39.484Z,14.40
2023-03-04T14:09:42.465Z,13.40
2023-03-04T14:12:44.460Z,14.20
2023-03-04T14:15:45.395Z,13.90
2023-03-04T14:18:45.420Z,13.40
2023-03-04T14:21:45.546Z,14.30
2023-03-04T14:24:45.437Z,12.00
2023-03-04T14:27:48.443Z,14.80
2023-03-04T14:30:49.503Z,13.00
2023-03-04T14:33:49.493Z,13.20
2023-03-04T14:36:56.523Z,12.60
2023-03-04T14:39:56.540Z,11.70
2023-03-04T14:42:58.507Z,12.00
2023-03-04T14:45:59.529Z,9.00
2023-03-04T14:49:02.537Z,10.30
2023-03-04T14:52:04.559Z,10.10
2023-03-04T14:55:36.501Z,10.30
2023-03-04T14:58:39.528Z,10.00
2023-03-04T15:01:46.474Z,11.00
2023-03-04T15:04:46.530Z,10.90
2023-03-04T15:07:47.497Z,9.90
2023-03-04T15:10:48.540Z,10.60
2023-03-04T15:14:00.622Z,10.10
2023-03-04T15:17:08.646Z,10.90
2023-03-04T15:20:33.049Z,8.30
2023-03-04T15:23:34.704Z,10.40
2023-03-04T15:26:37.780Z,9.90
2023-03-04T15:29:38.552Z,11.20
2023-03-04T15:32:41.570Z,10.20
2023-03-04T15:35:39.519Z,10.20
2023-03-04T15:38:40.754Z,10.10
2023-03-04T15:41:44.874Z,9.30
2023-03-04T15:44:50.124Z,10.60
2023-03-04T15:47:51.605Z,10.20
2023-03-04T15:51:14.300Z,9.40
2023-03-04T15:54:16.712Z,10.10
2023-03-04T15:57:19.729Z,10.70
2023-03-04T16:00:21.979Z,10.10
2023-03-04T16:03:45.073Z,10.10
2023-03-04T16:06:50.620Z,8.90
2023-03-04T16:09:50.641Z,8.70
2023-03-04T16:12:52.030Z,9.50
2023-03-04T16:15:57.714Z,9.10
2023-03-04T16:22:01.676Z,10.40
2023-03-04T16:25:08.340Z,9.00
2023-03-04T16:28:13.727Z,10.00
2023-03-04T16:31:15.815Z,9.70
2023-03-04T16:34:16.637Z,10.20
2023-03-04T16:37:25.672Z,9.20
2023-03-04T16:40:27.699Z,10.20
2023-03-04T16:43:27.690Z,10.50
2023-03-04T16:46:28.733Z,8.70
2023-03-04T16:49:30.682Z,10.20
2023-03-04T16:52:43.648Z,10.10
2023-03-04T16:55:45.801Z,11.20
2023-03-04T16:58:48.190Z,9.60
2023-03-04T17:01:51.794Z,9.70
2023-03-04T17:04:58.785Z,10.60
2023-03-04T17:07:59.758Z,11.20
2023-03-04T17:11:04.093Z,10.40
2023-03-04T17:14:07.755Z,10.20
2023-03-04T17:17:13.193Z,10.50
2023-03-04T17:20:18.755Z,9.20
2023-03-04T17:23:18.823Z,11.20
2023-03-04T17:26:20.951Z,11.30
2023-03-04T17:29:22.782Z,9.60
2023-03-04T17:32:23.829Z,9.10
2023-03-04T17:35:26.172Z,11.40
2023-03-04T17:38:27.496Z,9.80
2023-03-04T17:41:28.773Z,10.00
2023-03-04T17:47:30.797Z,8.60
2023-03-04T17:56:53.953Z,8.80
2023-03-04T18:00:00.169Z,10.00
2023-03-04T18:03:03.821Z,9.40
2023-03-04T18:06:03.848Z,9.50
2023-03-04T18:09:05.016Z,9.80
2023-03-04T18:12:08.894Z,9.90
2023-03-04T18:15:13.844Z,10.20
2023-03-04T18:18:16.913Z,8.30
2023-03-04T18:21:17.856Z,10.90
2023-03-04T18:24:18.893Z,9.90
2023-03-04T18:27:19.889Z,8.70
2023-03-04T18:30:26.945Z,10.30
2023-03-04T18:33:27.186Z,10.40
2023-03-04T18:36:27.878Z,11.20
2023-03-04T18:39:31.927Z,9.60
2023-03-04T18:42:32.903Z,9.50
2023-03-04T18:45:38.909Z,10.50
2023-03-04T18:48:48.002Z,8.40
2023-03-04T18:51:52.950Z,8.60
2023-03-04T18:54:53.884Z,10.90
2023-03-04T18:57:58.151Z,9.10
2023-03-04T19:00:58.992Z,8.70
2023-03-04T19:04:05.121Z,8.50
2023-03-04T19:10:45.542Z,9.70
2023-03-04T19:14:12.753Z,10.70
2023-03-04T19:17:57.500Z,9.50
2023-03-04T19:24:29.267Z,9.40
2023-03-04T19:30:54.984Z,10.40
2023-03-04T19:34:03.616Z,10.90
2023-03-04T19:37:05.944Z,10.70
2023-03-04T19:40:10.755Z,9.00
2023-03-04T19:43:18.151Z,11.50
2023-03-04T19:46:24.283Z,10.90
2023-03-04T19:49:44.979Z,9.10
2023-03-04T19:53:00.857Z,10.70
2023-03-04T19:56:08.009Z,10.20
2023-03-04T19:59:15.125Z,11.30
2023-03-04T20:02:18.972Z,10.90
2023-03-04T20:05:40.241Z,12.50
2023-03-04T20:08:40.999Z,12.70
2023-03-04T20:11:57.336Z,11.30
2023-03-04T20:15:05.809Z,11.80
2023-03-04T20:18:24.753Z,11.90
2023-03-04T20:21:43.700Z,11.50
2023-03-04T20:26:54.205Z,12.90
2023-03-04T20:30:04.759Z,13.70
2023-03-04T20:36:18.038Z,12.00
2023-03-04T20:39:29.481Z,11.60
2023-03-04T20:42:30.379Z,13.30
2023-03-04T20:51:38.420Z,10.40
2023-03-04T20:54:39.154Z,8.30
2023-03-04T20:57:42.171Z,6.60
2023-03-04T21:00:45.117Z,5.60
2023-03-04T21:03:47.226Z,5.10
2023-03-04T21:06:52.702Z,4.90
2023-03-04T21:09:57.556Z,4.80
2023-03-04T21:12:58.394Z,3.60
2023-03-04T21:15:58.387Z,3.70
2023-03-04T21:19:01.178Z,2.50
2023-03-04T21:21:59.260Z,2.50
2023-03-04T21:25:00.171Z,2.30
2023-03-04T21:28:04.438Z,2.10
2023-03-04T21:31:06.229Z,2.30
2023-03-04T21:34:14.180Z,1.80
2023-03-04T21:37:23.192Z,1.80
2023-03-04T21:40:23.184Z,1.60
2023-03-04T21:43:28.242Z,1.60
2023-03-04T21:46:29.268Z,1.50
2023-03-04T21:49:29.236Z,1.40
2023-03-04T21:52:32.239Z,0.70
2023-03-04T21:55:32.286Z,0.90
2023-03-04T21:58:32.400Z,1.30
2023-03-04T22:01:33.259Z,1.70
2023-03-04T22:04:33.288Z,1.80
2023-03-04T22:07:34.224Z,1.30
2023-03-04T22:10:37.294Z,1.40
2023-03-04T22:13:39.265Z,1.00
2023-03-04T22:16:54.089Z,1.60
2023-03-04T22:19:56.330Z,0.90
2023-03-04T22:22:58.426Z,2.60
2023-03-04T22:25:59.334Z,0.90
2023-03-04T22:28:59.351Z,0.90
2023-03-04T22:32:00.465Z,1.00
2023-03-04T22:35:06.337Z,1.00
2023-03-04T22:38:07.330Z,0.90
2023-03-04T22:41:07.499Z,1.30
2023-03-04T22:44:09.503Z,1.00
2023-03-04T22:47:10.392Z,1.30
2023-03-04T22:50:10.367Z,1.10
2023-03-04T22:53:12.338Z,1.20
2023-03-04T22:56:12.390Z,1.50
2023-03-04T22:59:12.339Z,1.00
2023-03-04T23:02:17.419Z,1.30
2023-03-04T23:05:20.393Z,0.80
2023-03-04T23:08:21.366Z,0.90
2023-03-04T23:11:27.512Z,0.90
2023-03-04T23:14:28.523Z,1.10
2023-03-04T23:17:29.377Z,0.70
2023-03-04T23:20:31.407Z,0.70
2023-03-04T23:23:32.390Z,0.90
2023-03-04T23:26:38.459Z,1.50
2023-03-04T23:29:42.698Z,1.00
2023-03-04T23:32:42.645Z,1.10
2023-03-04T23:35:42.456Z,0.60
2023-03-04T23:38:43.450Z,1.20
2023-03-04T23:41:45.430Z,1.00
2023-03-04T23:44:45.421Z,1.00
2023-03-04T23:47:47.654Z,0.90
2023-03-04T23:50:49.428Z,1.50
2023-03-04T23:53:49.447Z,1.30
2023-03-04T23:56:50.653Z,1.20
2023-03-04T23:59:53.429Z,0.90
